sensor_id;sensor_type;location;lat;lon;timestamp;P1;durP1;ratioP1;P2;durP2;ratioP2
24159;SDS011;62385;41.594;23.808;2022-11-24T00:01:06;1.10;;;0.57;;
24159;SDS011;62385;41.594;23.808;2022-11-24T00:03:33;0.60;;;0.50;;
24159;SDS011;62385;41.594;23.808;2022-11-24T00:06:06;1.50;;;1.30;;
24159;SDS011;62385;41.594;23.808;2022-11-24T00:08:33;0.70;;;0.40;;
24159;SDS011;62385;41.594;23.808;2022-11-24T00:11:07;2.40;;;1.00;;
24159;SDS011;62385;41.594;23.808;2022-11-24T00:13:37;0.77;;;0.60;;
24159;SDS011;62385;41.594;23.808;2022-11-24T00:16:04;1.07;;;0.53;;
24159;SDS011;62385;41.594;23.808;2022-11-24T00:18:31;0.70;;;0.60;;
24159;SDS011;62385;41.594;23.808;2022-11-24T00:20:56;0.77;;;0.63;;
24159;SDS011;62385;41.594;23.808;2022-11-24T00:23:22;0.93;;;0.60;;
24159;SDS011;62385;41.594;23.808;2022-11-24T00:25:47;0.20;;;0.20;;
24159;SDS011;62385;41.594;23.808;2022-11-24T00:28:13;0.53;;;0.30;;
24159;SDS011;62385;41.594;23.808;2022-11-24T00:30:38;3.33;;;0.90;;
24159;SDS011;62385;41.594;23.808;2022-11-24T00:33:04;1.30;;;1.00;;
24159;SDS011;62385;41.594;23.808;2022-11-24T00:35:29;2.97;;;1.17;;
24159;SDS011;62385;41.594;23.808;2022-11-24T00:37:55;0.40;;;0.27;;
24159;SDS011;62385;41.594;23.808;2022-11-24T00:40:20;0.47;;;0.47;;
24159;SDS011;62385;41.594;23.808;2022-11-24T00:42:46;1.53;;;0.60;;
24159;SDS011;62385;41.594;23.808;2022-11-24T00:45:12;0.83;;;0.63;;
24159;SDS011;62385;41.594;23.808;2022-11-24T00:47:37;0.50;;;0.50;;
24159;SDS011;62385;41.594;23.808;2022-11-24T00:50:03;0.20;;;0.10;;
24159;SDS011;62385;41.594;23.808;2022-11-24T00:52:29;1.10;;;0.53;;
24159;SDS011;62385;41.594;23.808;2022-11-24T00:54:54;1.17;;;0.50;;
24159;SDS011;62385;41.594;23.808;2022-11-24T00:57:20;0.87;;;0.50;;
24159;SDS011;62385;41.594;23.808;2022-11-24T00:59:46;0.30;;;0.23;;
24159;SDS011;62385;41.594;23.808;2022-11-24T01:02:11;0.87;;;0.47;;
24159;SDS011;62385;41.594;23.808;2022-11-24T01:04:37;0.23;;;0.20;;
24159;SDS011;62385;41.594;23.808;2022-11-24T01:07:02;0.40;;;0.40;;
24159;SDS011;62385;41.594;23.808;2022-11-24T01:09:28;0.50;;;0.50;;
24159;SDS011;62385;41.594;23.808;2022-11-24T01:11:54;0.57;;;0.50;;
24159;SDS011;62385;41.594;23.808;2022-11-24T01:14:25;0.20;;;0.10;;
24159;SDS011;62385;41.594;23.808;2022-11-24T01:16:51;1.90;;;0.83;;
24159;SDS011;62385;41.594;23.808;2022-11-24T01:19:19;0.20;;;0.20;;
24159;SDS011;62385;41.594;23.808;2022-11-24T01:21:45;0.40;;;0.30;;
24159;SDS011;62385;41.594;23.808;2022-11-24T01:24:11;1.37;;;0.77;;
24159;SDS011;62385;41.594;23.808;2022-11-24T01:26:37;0.40;;;0.40;;
24159;SDS011;62385;41.594;23.808;2022-11-24T01:29:03;1.03;;;0.50;;
24159;SDS011;62385;41.594;23.808;2022-11-24T01:31:28;5.70;;;0.97;;
24159;SDS011;62385;41.594;23.808;2022-11-24T01:33:54;0.57;;;0.30;;
24159;SDS011;62385;41.594;23.808;2022-11-24T01:36:20;1.17;;;0.73;;
24159;SDS011;62385;41.594;23.808;2022-11-24T01:38:47;0.40;;;0.30;;
24159;SDS011;62385;41.594;23.808;2022-11-24T01:43:40;0.53;;;0.53;;
24159;SDS011;62385;41.594;23.808;2022-11-24T01:52:04;0.30;;;0.27;;
24159;SDS011;62385;41.594;23.808;2022-11-24T01:54:41;2.57;;;1.03;;
24159;SDS011;62385;41.594;23.808;2022-11-24T01:57:13;0.40;;;0.37;;
24159;SDS011;62385;41.594;23.808;2022-11-24T01:59:44;5.17;;;0.67;;
24159;SDS011;62385;41.594;23.808;2022-11-24T02:02:11;0.60;;;0.57;;
24159;SDS011;62385;41.594;23.808;2022-11-24T02:04:38;1.13;;;0.97;;
24159;SDS011;62385;41.594;23.808;2022-11-24T02:07:04;0.57;;;0.40;;
24159;SDS011;62385;41.594;23.808;2022-11-24T02:09:33;0.87;;;0.57;;
24159;SDS011;62385;41.594;23.808;2022-11-24T02:12:05;1.63;;;1.07;;
24159;SDS011;62385;41.594;23.808;2022-11-24T02:14:31;0.77;;;0.60;;
24159;SDS011;62385;41.594;23.808;2022-11-24T02:16:59;0.67;;;0.40;;
24159;SDS011;62385;41.594;23.808;2022-11-24T02:19:42;0.90;;;0.90;;
24159;SDS011;62385;41.594;23.808;2022-11-24T02:28:06;0.60;;;0.33;;
24159;SDS011;62385;41.594;23.808;2022-11-24T02:30:35;0.20;;;0.20;;
24159;SDS011;62385;41.594;23.808;2022-11-24T02:33:01;0.40;;;0.30;;
24159;SDS011;62385;41.594;23.808;2022-11-24T02:35:27;3.97;;;0.53;;
24159;SDS011;62385;41.594;23.808;2022-11-24T02:37:53;0.63;;;0.60;;
24159;SDS011;62385;41.594;23.808;2022-11-24T02:40:19;0.80;;;0.30;;
24159;SDS011;62385;41.594;23.808;2022-11-24T02:42:54;0.83;;;0.40;;
24159;SDS011;62385;41.594;23.808;2022-11-24T02:45:34;12.40;;;1.03;;
24159;SDS011;62385;41.594;23.808;2022-11-24T02:48:00;1.23;;;1.03;;
24159;SDS011;62385;41.594;23.808;2022-11-24T02:50:25;0.20;;;0.10;;
24159;SDS011;62385;41.594;23.808;2022-11-24T02:52:51;1.10;;;0.70;;
24159;SDS011;62385;41.594;23.808;2022-11-24T02:55:17;1.17;;;0.40;;
24159;SDS011;62385;41.594;23.808;2022-11-24T02:57:44;0.20;;;0.20;;
24159;SDS011;62385;41.594;23.808;2022-11-24T03:00:10;0.60;;;0.50;;
24159;SDS011;62385;41.594;23.808;2022-11-24T03:02:36;0.47;;;0.40;;
24159;SDS011;62385;41.594;23.808;2022-11-24T03:05:02;2.37;;;1.20;;
24159;SDS011;62385;41.594;23.808;2022-11-24T03:07:27;1.13;;;0.60;;
24159;SDS011;62385;41.594;23.808;2022-11-24T03:09:53;2.53;;;2.27;;
24159;SDS011;62385;41.594;23.808;2022-11-24T03:12:18;0.20;;;0.13;;
24159;SDS011;62385;41.594;23.808;2022-11-24T03:14:45;3.53;;;0.50;;
24159;SDS011;62385;41.594;23.808;2022-11-24T03:17:11;1.00;;;0.87;;
24159;SDS011;62385;41.594;23.808;2022-11-24T03:19:37;1.03;;;0.50;;
24159;SDS011;62385;41.594;23.808;2022-11-24T03:22:02;1.07;;;0.40;;
24159;SDS011;62385;41.594;23.808;2022-11-24T03:24:28;0.77;;;0.53;;
24159;SDS011;62385;41.594;23.808;2022-11-24T03:26:53;0.20;;;0.10;;
24159;SDS011;62385;41.594;23.808;2022-11-24T03:29:20;1.57;;;1.23;;
24159;SDS011;62385;41.594;23.808;2022-11-24T03:31:46;0.30;;;0.20;;
24159;SDS011;62385;41.594;23.808;2022-11-24T03:34:12;2.27;;;0.57;;
24159;SDS011;62385;41.594;23.808;2022-11-24T03:36:37;0.47;;;0.47;;
24159;SDS011;62385;41.594;23.808;2022-11-24T03:39:04;1.20;;;0.63;;
24159;SDS011;62385;41.594;23.808;2022-11-24T03:41:31;0.23;;;0.20;;
24159;SDS011;62385;41.594;23.808;2022-11-24T03:43:57;1.00;;;0.83;;
24159;SDS011;62385;41.594;23.808;2022-11-24T03:46:23;1.17;;;0.90;;
24159;SDS011;62385;41.594;23.808;2022-11-24T03:48:49;0.60;;;0.40;;
24159;SDS011;62385;41.594;23.808;2022-11-24T03:51:15;1.53;;;0.53;;
24159;SDS011;62385;41.594;23.808;2022-11-24T03:53:41;1.43;;;0.40;;
24159;SDS011;62385;41.594;23.808;2022-11-24T03:56:07;0.33;;;0.30;;
24159;SDS011;62385;41.594;23.808;2022-11-24T03:58:33;2.00;;;0.53;;
24159;SDS011;62385;41.594;23.808;2022-11-24T04:00:58;1.20;;;0.90;;
24159;SDS011;62385;41.594;23.808;2022-11-24T04:03:24;0.80;;;0.37;;
24159;SDS011;62385;41.594;23.808;2022-11-24T04:05:50;1.80;;;0.73;;
24159;SDS011;62385;41.594;23.808;2022-11-24T04:08:16;1.53;;;1.07;;
24159;SDS011;62385;41.594;23.808;2022-11-24T04:10:42;0.40;;;0.40;;
24159;SDS011;62385;41.594;23.808;2022-11-24T04:13:12;0.47;;;0.47;;
24159;SDS011;62385;41.594;23.808;2022-11-24T04:15:41;1.67;;;1.00;;
24159;SDS011;62385;41.594;23.808;2022-11-24T04:18:07;4.20;;;1.30;;
24159;SDS011;62385;41.594;23.808;2022-11-24T04:20:34;1.17;;;1.07;;
24159;SDS011;62385;41.594;23.808;2022-11-24T04:23:00;1.27;;;0.93;;
24159;SDS011;62385;41.594;23.808;2022-11-24T04:25:27;0.80;;;0.50;;
24159;SDS011;62385;41.594;23.808;2022-11-24T04:27:53;3.67;;;1.93;;
24159;SDS011;62385;41.594;23.808;2022-11-24T04:30:20;3.83;;;1.87;;
24159;SDS011;62385;41.594;23.808;2022-11-24T04:32:48;2.73;;;1.87;;
24159;SDS011;62385;41.594;23.808;2022-11-24T04:35:13;3.40;;;2.43;;
24159;SDS011;62385;41.594;23.808;2022-11-24T04:37:39;2.47;;;0.90;;
24159;SDS011;62385;41.594;23.808;2022-11-24T04:40:06;1.53;;;1.43;;
24159;SDS011;62385;41.594;23.808;2022-11-24T04:42:33;6.33;;;2.30;;
24159;SDS011;62385;41.594;23.808;2022-11-24T04:44:59;3.13;;;1.83;;
24159;SDS011;62385;41.594;23.808;2022-11-24T04:47:24;3.93;;;2.30;;
24159;SDS011;62385;41.594;23.808;2022-11-24T04:49:51;10.17;;;2.87;;
24159;SDS011;62385;41.594;23.808;2022-11-24T04:52:18;14.30;;;4.07;;
24159;SDS011;62385;41.594;23.808;2022-11-24T04:54:46;3.33;;;1.90;;
24159;SDS011;62385;41.594;23.808;2022-11-24T04:57:20;3.37;;;2.17;;
24159;SDS011;62385;41.594;23.808;2022-11-24T04:59:48;1.93;;;1.23;;
24159;SDS011;62385;41.594;23.808;2022-11-24T05:02:14;1.73;;;1.00;;
24159;SDS011;62385;41.594;23.808;2022-11-24T05:04:40;1.57;;;0.93;;
24159;SDS011;62385;41.594;23.808;2022-11-24T05:07:05;2.97;;;1.97;;
24159;SDS011;62385;41.594;23.808;2022-11-24T05:09:32;2.90;;;2.20;;
24159;SDS011;62385;41.594;23.808;2022-11-24T05:11:58;1.63;;;1.20;;
24159;SDS011;62385;41.594;23.808;2022-11-24T05:14:23;1.43;;;1.00;;
24159;SDS011;62385;41.594;23.808;2022-11-24T05:16:50;2.63;;;1.53;;
24159;SDS011;62385;41.594;23.808;2022-11-24T05:19:16;5.47;;;2.63;;
24159;SDS011;62385;41.594;23.808;2022-11-24T05:21:41;3.53;;;1.83;;
24159;SDS011;62385;41.594;23.808;2022-11-24T05:24:08;2.83;;;2.43;;
24159;SDS011;62385;41.594;23.808;2022-11-24T05:26:35;1.80;;;1.67;;
24159;SDS011;62385;41.594;23.808;2022-11-24T05:29:01;0.97;;;0.90;;
24159;SDS011;62385;41.594;23.808;2022-11-24T05:31:27;4.57;;;3.30;;
24159;SDS011;62385;41.594;23.808;2022-11-24T05:33:52;7.73;;;3.20;;
24159;SDS011;62385;41.594;23.808;2022-11-24T05:36:18;5.27;;;2.97;;
24159;SDS011;62385;41.594;23.808;2022-11-24T05:39:02;3.63;;;3.30;;
24159;SDS011;62385;41.594;23.808;2022-11-24T05:41:27;4.07;;;3.30;;
24159;SDS011;62385;41.594;23.808;2022-11-24T05:43:53;4.87;;;1.87;;
24159;SDS011;62385;41.594;23.808;2022-11-24T05:46:18;9.47;;;4.33;;
24159;SDS011;62385;41.594;23.808;2022-11-24T05:48:44;7.40;;;4.43;;
24159;SDS011;62385;41.594;23.808;2022-11-24T05:51:09;6.90;;;2.93;;
24159;SDS011;62385;41.594;23.808;2022-11-24T05:53:35;2.83;;;2.23;;
24159;SDS011;62385;41.594;23.808;2022-11-24T05:56:02;1.60;;;1.10;;
24159;SDS011;62385;41.594;23.808;2022-11-24T05:58:28;1.80;;;1.27;;
24159;SDS011;62385;41.594;23.808;2022-11-24T06:00:54;2.00;;;1.40;;
24159;SDS011;62385;41.594;23.808;2022-11-24T06:03:19;2.13;;;1.47;;
24159;SDS011;62385;41.594;23.808;2022-11-24T06:05:45;3.60;;;2.40;;
24159;SDS011;62385;41.594;23.808;2022-11-24T06:08:11;6.93;;;4.83;;
24159;SDS011;62385;41.594;23.808;2022-11-24T06:10:37;5.13;;;2.93;;
24159;SDS011;62385;41.594;23.808;2022-11-24T06:13:04;4.37;;;3.50;;
24159;SDS011;62385;41.594;23.808;2022-11-24T06:15:31;4.97;;;4.43;;
24159;SDS011;62385;41.594;23.808;2022-11-24T06:17:57;4.00;;;3.47;;
24159;SDS011;62385;41.594;23.808;2022-11-24T06:20:23;3.40;;;2.53;;
24159;SDS011;62385;41.594;23.808;2022-11-24T06:22:49;3.00;;;1.60;;
24159;SDS011;62385;41.594;23.808;2022-11-24T06:25:15;4.03;;;1.27;;
24159;SDS011;62385;41.594;23.808;2022-11-24T06:27:41;3.93;;;2.13;;
24159;SDS011;62385;41.594;23.808;2022-11-24T06:30:07;1.63;;;1.53;;
24159;SDS011;62385;41.594;23.808;2022-11-24T06:32:34;1.83;;;0.77;;
24159;SDS011;62385;41.594;23.808;2022-11-24T06:35:00;2.10;;;1.33;;
24159;SDS011;62385;41.594;23.808;2022-11-24T06:37:26;2.43;;;1.80;;
24159;SDS011;62385;41.594;23.808;2022-11-24T06:39:51;10.30;;;5.87;;
24159;SDS011;62385;41.594;23.808;2022-11-24T06:42:17;21.47;;;12.33;;
24159;SDS011;62385;41.594;23.808;2022-11-24T06:44:46;14.97;;;7.67;;
24159;SDS011;62385;41.594;23.808;2022-11-24T06:47:12;7.30;;;4.17;;
24159;SDS011;62385;41.594;23.808;2022-11-24T06:49:39;7.00;;;3.97;;
24159;SDS011;62385;41.594;23.808;2022-11-24T06:52:05;8.67;;;3.57;;
24159;SDS011;62385;41.594;23.808;2022-11-24T06:54:30;11.13;;;4.07;;
24159;SDS011;62385;41.594;23.808;2022-11-24T06:56:58;9.03;;;3.07;;
24159;SDS011;62385;41.594;23.808;2022-11-24T06:59:24;3.87;;;2.70;;
24159;SDS011;62385;41.594;23.808;2022-11-24T07:01:52;10.73;;;4.47;;
24159;SDS011;62385;41.594;23.808;2022-11-24T07:04:18;5.60;;;3.10;;
24159;SDS011;62385;41.594;23.808;2022-11-24T07:06:44;4.03;;;2.47;;
24159;SDS011;62385;41.594;23.808;2022-11-24T07:09:10;1.73;;;1.63;;
24159;SDS011;62385;41.594;23.808;2022-11-24T07:11:38;4.33;;;1.60;;
24159;SDS011;62385;41.594;23.808;2022-11-24T07:14:04;3.97;;;1.80;;
24159;SDS011;62385;41.594;23.808;2022-11-24T07:16:30;6.27;;;2.43;;
24159;SDS011;62385;41.594;23.808;2022-11-24T07:18:56;2.07;;;1.80;;
24159;SDS011;62385;41.594;23.808;2022-11-24T07:21:22;1.17;;;1.00;;
24159;SDS011;62385;41.594;23.808;2022-11-24T07:23:53;7.27;;;1.03;;
24159;SDS011;62385;41.594;23.808;2022-11-24T07:26:20;3.10;;;2.07;;
24159;SDS011;62385;41.594;23.808;2022-11-24T07:28:46;2.53;;;1.87;;
24159;SDS011;62385;41.594;23.808;2022-11-24T07:31:13;3.03;;;2.70;;
24159;SDS011;62385;41.594;23.808;2022-11-24T07:33:41;3.30;;;1.93;;
24159;SDS011;62385;41.594;23.808;2022-11-24T07:36:07;4.83;;;2.83;;
24159;SDS011;62385;41.594;23.808;2022-11-24T07:38:33;2.63;;;1.97;;
24159;SDS011;62385;41.594;23.808;2022-11-24T07:41:01;5.77;;;3.33;;
24159;SDS011;62385;41.594;23.808;2022-11-24T07:43:32;8.27;;;4.43;;
24159;SDS011;62385;41.594;23.808;2022-11-24T07:45:59;5.83;;;2.67;;
24159;SDS011;62385;41.594;23.808;2022-11-24T07:48:25;6.03;;;2.07;;
24159;SDS011;62385;41.594;23.808;2022-11-24T07:50:50;2.00;;;1.40;;
24159;SDS011;62385;41.594;23.808;2022-11-24T07:53:16;5.33;;;3.00;;
24159;SDS011;62385;41.594;23.808;2022-11-24T07:55:42;1.63;;;1.53;;
24159;SDS011;62385;41.594;23.808;2022-11-24T07:58:08;9.40;;;3.27;;
24159;SDS011;62385;41.594;23.808;2022-11-24T08:00:33;5.77;;;3.00;;
24159;SDS011;62385;41.594;23.808;2022-11-24T08:03:00;6.93;;;3.53;;
24159;SDS011;62385;41.594;23.808;2022-11-24T08:05:26;3.07;;;2.60;;
24159;SDS011;62385;41.594;23.808;2022-11-24T08:07:51;5.63;;;2.70;;
24159;SDS011;62385;41.594;23.808;2022-11-24T08:10:17;12.03;;;3.97;;
24159;SDS011;62385;41.594;23.808;2022-11-24T08:12:42;7.87;;;4.10;;
24159;SDS011;62385;41.594;23.808;2022-11-24T08:15:08;9.80;;;4.47;;
24159;SDS011;62385;41.594;23.808;2022-11-24T08:17:34;4.93;;;3.43;;
24159;SDS011;62385;41.594;23.808;2022-11-24T08:20:00;6.27;;;3.20;;
24159;SDS011;62385;41.594;23.808;2022-11-24T08:22:26;3.27;;;2.53;;
24159;SDS011;62385;41.594;23.808;2022-11-24T08:24:51;3.20;;;1.53;;
24159;SDS011;62385;41.594;23.808;2022-11-24T08:27:17;5.70;;;2.57;;
24159;SDS011;62385;41.594;23.808;2022-11-24T08:29:43;1.63;;;1.50;;
24159;SDS011;62385;41.594;23.808;2022-11-24T08:32:09;4.00;;;1.53;;
24159;SDS011;62385;41.594;23.808;2022-11-24T08:34:36;2.43;;;1.63;;
24159;SDS011;62385;41.594;23.808;2022-11-24T08:37:03;4.47;;;1.50;;
24159;SDS011;62385;41.594;23.808;2022-11-24T08:39:29;1.77;;;1.30;;
24159;SDS011;62385;41.594;23.808;2022-11-24T08:41:55;1.40;;;1.20;;
24159;SDS011;62385;41.594;23.808;2022-11-24T08:44:20;4.47;;;2.03;;
24159;SDS011;62385;41.594;23.808;2022-11-24T08:46:46;3.10;;;1.60;;
24159;SDS011;62385;41.594;23.808;2022-11-24T08:49:12;2.20;;;1.53;;
24159;SDS011;62385;41.594;23.808;2022-11-24T08:51:41;5.73;;;2.00;;
24159;SDS011;62385;41.594;23.808;2022-11-24T08:54:07;6.93;;;2.20;;
24159;SDS011;62385;41.594;23.808;2022-11-24T08:56:37;2.67;;;1.60;;
24159;SDS011;62385;41.594;23.808;2022-11-24T08:59:03;2.13;;;1.30;;
24159;SDS011;62385;41.594;23.808;2022-11-24T09:01:30;0.87;;;0.73;;
24159;SDS011;62385;41.594;23.808;2022-11-24T09:03:56;3.50;;;1.17;;
24159;SDS011;62385;41.594;23.808;2022-11-24T09:06:23;1.53;;;1.17;;
24159;SDS011;62385;41.594;23.808;2022-11-24T09:08:51;1.30;;;0.70;;
24159;SDS011;62385;41.594;23.808;2022-11-24T09:11:18;1.03;;;1.00;;
24159;SDS011;62385;41.594;23.808;2022-11-24T09:13:44;0.80;;;0.80;;
24159;SDS011;62385;41.594;23.808;2022-11-24T09:16:15;3.97;;;1.00;;
24159;SDS011;62385;41.594;23.808;2022-11-24T09:18:45;1.10;;;0.87;;
24159;SDS011;62385;41.594;23.808;2022-11-24T09:23:42;2.07;;;0.80;;
24159;SDS011;62385;41.594;23.808;2022-11-24T09:26:09;2.10;;;1.33;;
24159;SDS011;62385;41.594;23.808;2022-11-24T09:28:46;2.07;;;1.87;;
24159;SDS011;62385;41.594;23.808;2022-11-24T09:31:13;1.37;;;1.13;;
24159;SDS011;62385;41.594;23.808;2022-11-24T09:33:40;1.13;;;1.00;;
24159;SDS011;62385;41.594;23.808;2022-11-24T09:36:07;1.23;;;0.80;;
24159;SDS011;62385;41.594;23.808;2022-11-24T09:38:33;2.10;;;1.17;;
24159;SDS011;62385;41.594;23.808;2022-11-24T09:41:42;2.67;;;1.20;;
24159;SDS011;62385;41.594;23.808;2022-11-24T09:49:32;0.90;;;0.87;;
24159;SDS011;62385;41.594;23.808;2022-11-24T09:52:00;2.23;;;1.13;;
24159;SDS011;62385;41.594;23.808;2022-11-24T09:54:28;0.60;;;0.40;;
24159;SDS011;62385;41.594;23.808;2022-11-24T09:56:56;1.93;;;1.23;;
24159;SDS011;62385;41.594;23.808;2022-11-24T09:59:25;0.90;;;0.70;;
24159;SDS011;62385;41.594;23.808;2022-11-24T10:01:51;1.57;;;0.67;;
24159;SDS011;62385;41.594;23.808;2022-11-24T10:04:19;1.40;;;1.07;;
24159;SDS011;62385;41.594;23.808;2022-11-24T10:15:16;1.27;;;0.90;;
24159;SDS011;62385;41.594;23.808;2022-11-24T10:31:41;4.88;;;0.90;;
24159;SDS011;62385;41.594;23.808;2022-11-24T10:37:07;2.67;;;2.13;;
24159;SDS011;62385;41.594;23.808;2022-11-24T10:39:55;9.50;;;5.57;;
24159;SDS011;62385;41.594;23.808;2022-11-24T10:42:30;12.70;;;6.73;;
24159;SDS011;62385;41.594;23.808;2022-11-24T10:47:34;0.50;;;0.50;;
24159;SDS011;62385;41.594;23.808;2022-11-24T10:50:01;1.15;;;0.90;;
24159;SDS011;62385;41.594;23.808;2022-11-24T10:52:29;1.10;;;0.80;;
24159;SDS011;62385;41.594;23.808;2022-11-24T10:55:02;1.95;;;0.88;;
24159;SDS011;62385;41.594;23.808;2022-11-24T10:57:36;0.98;;;0.90;;
24159;SDS011;62385;41.594;23.808;2022-11-24T11:02:50;1.50;;;1.05;;
24159;SDS011;62385;41.594;23.808;2022-11-24T11:05:36;2.47;;;1.52;;
24159;SDS011;62385;41.594;23.808;2022-11-24T11:10:39;3.22;;;1.42;;
24159;SDS011;62385;41.594;23.808;2022-11-24T11:13:28;2.58;;;0.77;;
24159;SDS011;62385;41.594;23.808;2022-11-24T11:15:56;0.63;;;0.63;;
24159;SDS011;62385;41.594;23.808;2022-11-24T11:18:25;1.17;;;0.95;;
24159;SDS011;62385;41.594;23.808;2022-11-24T11:21:30;1.40;;;0.70;;
24159;SDS011;62385;41.594;23.808;2022-11-24T11:24:20;1.50;;;1.13;;
24159;SDS011;62385;41.594;23.808;2022-11-24T11:26:47;2.60;;;0.93;;
24159;SDS011;62385;41.594;23.808;2022-11-24T11:29:26;1.50;;;1.20;;
24159;SDS011;62385;41.594;23.808;2022-11-24T11:32:00;1.98;;;1.20;;
24159;SDS011;62385;41.594;23.808;2022-11-24T11:34:34;1.23;;;0.68;;
24159;SDS011;62385;41.594;23.808;2022-11-24T11:37:01;1.17;;;1.10;;
24159;SDS011;62385;41.594;23.808;2022-11-24T11:39:32;0.57;;;0.57;;
24159;SDS011;62385;41.594;23.808;2022-11-24T11:44:48;1.45;;;1.08;;
24159;SDS011;62385;41.594;23.808;2022-11-24T11:50:06;1.75;;;0.77;;
24159;SDS011;62385;41.594;23.808;2022-11-24T12:14:48;0.40;;;0.20;;
24159;SDS011;62385;41.594;23.808;2022-11-24T12:17:29;1.10;;;0.73;;
24159;SDS011;62385;41.594;23.808;2022-11-24T12:20:05;1.02;;;0.80;;
24159;SDS011;62385;41.594;23.808;2022-11-24T12:22:45;2.78;;;0.60;;
24159;SDS011;62385;41.594;23.808;2022-11-24T12:31:03;2.13;;;0.63;;
24159;SDS011;62385;41.594;23.808;2022-11-24T12:33:36;1.45;;;0.90;;
24159;SDS011;62385;41.594;23.808;2022-11-24T12:36:22;1.10;;;0.70;;
24159;SDS011;62385;41.594;23.808;2022-11-24T12:39:00;3.50;;;1.45;;
24159;SDS011;62385;41.594;23.808;2022-11-24T12:44:54;3.10;;;1.02;;
24159;SDS011;62385;41.594;23.808;2022-11-24T12:50:19;0.40;;;0.40;;
24159;SDS011;62385;41.594;23.808;2022-11-24T12:52:56;1.85;;;0.30;;
24159;SDS011;62385;41.594;23.808;2022-11-24T12:55:28;0.20;;;0.10;;
24159;SDS011;62385;41.594;23.808;2022-11-24T13:06:17;0.40;;;0.40;;
24159;SDS011;62385;41.594;23.808;2022-11-24T13:08:51;0.70;;;0.63;;
24159;SDS011;62385;41.594;23.808;2022-11-24T13:16:46;0.50;;;0.50;;
24159;SDS011;62385;41.594;23.808;2022-11-24T13:19:16;1.85;;;0.90;;
24159;SDS011;62385;41.594;23.808;2022-11-24T13:24:26;0.55;;;0.40;;
24159;SDS011;62385;41.594;23.808;2022-11-24T13:27:37;0.65;;;0.55;;
24159;SDS011;62385;41.594;23.808;2022-11-24T13:35:23;0.80;;;0.80;;
24159;SDS011;62385;41.594;23.808;2022-11-24T13:37:49;1.35;;;0.65;;
24159;SDS011;62385;41.594;23.808;2022-11-24T13:58:40;0.85;;;0.40;;
24159;SDS011;62385;41.594;23.808;2022-11-24T14:01:09;3.83;;;1.13;;
24159;SDS011;62385;41.594;23.808;2022-11-24T14:03:42;0.75;;;0.57;;
24159;SDS011;62385;41.594;23.808;2022-11-24T14:08:59;5.35;;;0.95;;
24159;SDS011;62385;41.594;23.808;2022-11-24T14:11:29;0.65;;;0.52;;
24159;SDS011;62385;41.594;23.808;2022-11-24T14:13:55;1.75;;;0.40;;
24159;SDS011;62385;41.594;23.808;2022-11-24T14:16:21;0.55;;;0.35;;
24159;SDS011;62385;41.594;23.808;2022-11-24T14:18:49;0.30;;;0.17;;
24159;SDS011;62385;41.594;23.808;2022-11-24T14:26:48;1.00;;;0.28;;
24159;SDS011;62385;41.594;23.808;2022-11-24T14:31:40;0.50;;;0.50;;
24159;SDS011;62385;41.594;23.808;2022-11-24T14:36:36;2.83;;;0.98;;
24159;SDS011;62385;41.594;23.808;2022-11-24T14:39:03;0.75;;;0.65;;
24159;SDS011;62385;41.594;23.808;2022-11-24T14:41:28;7.05;;;0.80;;
24159;SDS011;62385;41.594;23.808;2022-11-24T14:44:14;0.80;;;0.57;;
24159;SDS011;62385;41.594;23.808;2022-11-24T14:46:43;1.30;;;1.20;;
24159;SDS011;62385;41.594;23.808;2022-11-24T14:49:09;3.03;;;1.70;;
24159;SDS011;62385;41.594;23.808;2022-11-24T14:51:44;4.88;;;2.40;;
24159;SDS011;62385;41.594;23.808;2022-11-24T14:54:18;6.30;;;2.65;;
24159;SDS011;62385;41.594;23.808;2022-11-24T14:57:01;5.30;;;1.92;;
24159;SDS011;62385;41.594;23.808;2022-11-24T14:59:29;2.47;;;1.45;;
24159;SDS011;62385;41.594;23.808;2022-11-24T15:01:59;18.60;;;1.45;;
24159;SDS011;62385;41.594;23.808;2022-11-24T15:07:02;5.00;;;1.52;;
24159;SDS011;62385;41.594;23.808;2022-11-24T15:09:51;3.83;;;2.15;;
24159;SDS011;62385;41.594;23.808;2022-11-24T15:12:26;3.08;;;0.93;;
24159;SDS011;62385;41.594;23.808;2022-11-24T15:14:56;1.52;;;1.42;;
24159;SDS011;62385;41.594;23.808;2022-11-24T15:17:25;2.55;;;1.83;;
24159;SDS011;62385;41.594;23.808;2022-11-24T15:20:00;2.40;;;1.40;;
24159;SDS011;62385;41.594;23.808;2022-11-24T15:22:38;1.75;;;0.80;;
24159;SDS011;62385;41.594;23.808;2022-11-24T15:27:54;2.40;;;0.90;;
24159;SDS011;62385;41.594;23.808;2022-11-24T15:30:20;0.63;;;0.63;;
24159;SDS011;62385;41.594;23.808;2022-11-24T15:32:54;1.40;;;1.27;;
24159;SDS011;62385;41.594;23.808;2022-11-24T15:35:22;1.17;;;1.05;;
24159;SDS011;62385;41.594;23.808;2022-11-24T15:37:49;0.75;;;0.70;;
24159;SDS011;62385;41.594;23.808;2022-11-24T15:40:15;3.70;;;1.08;;
24159;SDS011;62385;41.594;23.808;2022-11-24T15:42:43;1.35;;;1.25;;
24159;SDS011;62385;41.594;23.808;2022-11-24T15:45:13;2.70;;;1.13;;
24159;SDS011;62385;41.594;23.808;2022-11-24T15:47:39;0.55;;;0.50;;
24159;SDS011;62385;41.594;23.808;2022-11-24T15:50:05;3.45;;;1.50;;
24159;SDS011;62385;41.594;23.808;2022-11-24T15:52:31;1.77;;;1.23;;
24159;SDS011;62385;41.594;23.808;2022-11-24T15:54:58;1.80;;;1.48;;
24159;SDS011;62385;41.594;23.808;2022-11-24T15:57:24;1.15;;;1.02;;
24159;SDS011;62385;41.594;23.808;2022-11-24T15:59:51;1.27;;;1.17;;
24159;SDS011;62385;41.594;23.808;2022-11-24T16:02:16;2.45;;;1.65;;
24159;SDS011;62385;41.594;23.808;2022-11-24T16:04:43;2.10;;;1.63;;
24159;SDS011;62385;41.594;23.808;2022-11-24T16:07:12;3.28;;;2.17;;
24159;SDS011;62385;41.594;23.808;2022-11-24T16:09:38;7.38;;;4.55;;
24159;SDS011;62385;41.594;23.808;2022-11-24T16:12:04;3.35;;;1.77;;
24159;SDS011;62385;41.594;23.808;2022-11-24T16:14:32;1.60;;;1.38;;
24159;SDS011;62385;41.594;23.808;2022-11-24T16:17:01;3.92;;;2.00;;
24159;SDS011;62385;41.594;23.808;2022-11-24T16:19:26;1.52;;;1.10;;
24159;SDS011;62385;41.594;23.808;2022-11-24T16:21:52;2.20;;;1.83;;
24159;SDS011;62385;41.594;23.808;2022-11-24T16:24:19;3.78;;;2.58;;
24159;SDS011;62385;41.594;23.808;2022-11-24T16:26:44;2.78;;;1.42;;
24159;SDS011;62385;41.594;23.808;2022-11-24T16:29:10;2.20;;;1.45;;
24159;SDS011;62385;41.594;23.808;2022-11-24T16:31:35;1.83;;;1.48;;
24159;SDS011;62385;41.594;23.808;2022-11-24T16:34:02;2.13;;;1.38;;
24159;SDS011;62385;41.594;23.808;2022-11-24T16:36:27;1.55;;;0.88;;
24159;SDS011;62385;41.594;23.808;2022-11-24T16:38:53;1.57;;;0.70;;
24159;SDS011;62385;41.594;23.808;2022-11-24T16:41:19;2.35;;;2.03;;
24159;SDS011;62385;41.594;23.808;2022-11-24T16:44:04;1.35;;;0.93;;
24159;SDS011;62385;41.594;23.808;2022-11-24T16:46:29;2.17;;;1.33;;
24159;SDS011;62385;41.594;23.808;2022-11-24T16:48:56;2.10;;;1.10;;
24159;SDS011;62385;41.594;23.808;2022-11-24T16:51:26;3.17;;;1.63;;
24159;SDS011;62385;41.594;23.808;2022-11-24T16:53:58;4.60;;;2.53;;
24159;SDS011;62385;41.594;23.808;2022-11-24T16:56:26;4.20;;;2.55;;
24159;SDS011;62385;41.594;23.808;2022-11-24T16:58:53;7.32;;;2.88;;
24159;SDS011;62385;41.594;23.808;2022-11-24T17:01:19;1.58;;;1.02;;
24159;SDS011;62385;41.594;23.808;2022-11-24T17:03:45;1.27;;;0.88;;
24159;SDS011;62385;41.594;23.808;2022-11-24T17:06:13;2.08;;;1.40;;
24159;SDS011;62385;41.594;23.808;2022-11-24T17:08:40;1.08;;;0.80;;
24159;SDS011;62385;41.594;23.808;2022-11-24T17:11:08;3.72;;;1.85;;
24159;SDS011;62385;41.594;23.808;2022-11-24T17:13:35;3.55;;;1.55;;